Time;durP1;ratioP1;P1;durP2;ratioP2;P2;SDS_P1;SDS_P2;PMS_P1;PMS_P2;Temp;Humidity;BMP_temperature;BMP_pressure;BME280_temperature;BME280_humidity;BME280_pressure;Samples;Min_cycle;Max_cycle;Signal;HPM_P1;HPM_P2
2021/06/15 00:01:48;;;;;;;12.90;7.78;;;20.60;72.30;;;20.16;64.46;100820.84;5043211;28;20032;-85
2021/06/15 00:04:27;;;;;;;12.25;7.45;;;20.60;72.40;;;20.13;64.56;100826.88;5047665;28;20055;-85
2021/06/15 00:07:07;;;;;;;13.88;8.00;;;20.60;72.50;;;20.10;64.78;100826.25;5049506;28;20568;-85
2021/06/15 00:09:40;;;;;;;11.50;7.20;;;20.50;72.90;;;20.07;64.85;100826.72;5049044;28;20053;-85
2021/06/15 00:12:19;;;;;;;11.20;7.22;;;20.50;73.20;;;20.05;64.79;100825.31;5049811;28;20056;-85
2021/06/15 00:20:35;;;;;;;14.27;7.95;;;20.40;73.20;;;19.99;64.97;100823.47;5045169;28;20048;-85
2021/06/15 00:23:09;;;;;;;13.63;7.28;;;20.30;73.70;;;19.96;65.21;100829.50;5049598;28;20501;-85
2021/06/15 00:25:48;;;;;;;11.80;8.05;;;20.20;73.80;;;19.94;65.45;100823.38;5031817;28;20045;-85
2021/06/15 00:28:25;;;;;;;14.13;7.70;;;20.20;74.00;;;19.90;65.23;100823.84;5049792;28;20041;-85
2021/06/15 00:31:07;;;;;;;12.00;7.60;;;20.10;74.20;;;19.88;65.44;100820.47;5048987;28;20052;-85
2021/06/15 00:33:51;;;;;;;11.95;7.45;;;20.10;74.70;;;19.85;65.53;100820.94;5049515;28;20493;-85
2021/06/15 00:36:33;;;;;;;12.43;7.82;;;20.10;74.70;;;19.81;65.47;100822.50;5049487;28;20052;-85
2021/06/15 00:39:14;;;;;;;12.23;7.65;;;20.00;74.60;;;19.79;65.66;100821.91;5049296;28;20048;-85
2021/06/15 00:41:52;;;;;;;13.13;7.63;;;20.00;74.90;;;19.76;65.81;100827.88;5048879;28;20555;-85
2021/06/15 00:44:37;;;;;;;11.98;8.05;;;19.90;75.20;;;19.75;65.80;100825.41;5025600;28;20053;-85
2021/06/15 00:47:16;;;;;;;12.98;8.05;;;19.90;75.50;;;19.70;66.09;100839.88;5047938;28;20064;-84
2021/06/15 00:49:55;;;;;;;12.68;7.88;;;19.90;75.50;;;19.67;66.10;100835.66;5048337;28;20049;-85
2021/06/15 00:52:35;;;;;;;14.30;8.05;;;19.80;75.70;;;19.64;66.31;100829.78;5027816;28;20045;-85
2021/06/15 00:55:16;;;;;;;14.02;8.13;;;19.80;75.70;;;19.60;66.36;100815.59;5048695;28;20425;-85
2021/06/15 00:57:56;;;;;;;13.00;8.13;;;19.80;75.80;;;19.59;66.41;100818.59;5031178;28;20517;-85
2021/06/15 01:00:35;;;;;;;13.98;8.68;;;19.70;76.00;;;19.58;66.57;100830.72;5030221;28;20157;-85
2021/06/15 01:06:04;;;;;;;12.25;8.15;;;19.60;76.20;;;19.52;66.59;100833.34;5030146;28;20760;-85
2021/06/15 01:08:51;;;;;;;13.32;8.10;;;19.60;76.40;;;19.48;66.69;100836.84;5030993;28;20055;-85
2021/06/15 01:11:51;;;;;;;14.60;8.65;;;19.60;76.40;;;19.46;66.77;100848.09;5029827;28;20053;-85
2021/06/15 01:14:49;;;;;;;15.15;8.40;;;19.50;76.70;;;19.42;66.80;100843.28;5048911;28;20045;-85
2021/06/15 01:17:39;;;;;;;11.70;7.88;;;19.50;77.00;;;19.39;67.13;100830.78;5046411;28;20099;-84
2021/06/15 01:27:31;;;;;;;13.40;8.85;;;19.40;77.20;;;19.32;67.49;100832.81;5101510;28;20055;-84
2021/06/15 01:30:21;;;;;;;12.90;8.10;;;19.40;77.70;;;19.28;67.60;100837.13;5084154;28;20049;-85
2021/06/15 01:33:06;;;;;;;11.80;8.68;;;19.30;77.90;;;19.25;67.68;100845.88;5086008;28;20048;-85
2021/06/15 01:35:44;;;;;;;13.30;8.48;;;19.30;78.00;;;19.22;67.48;100838.91;5085598;28;20064;-85
2021/06/15 01:38:25;;;;;;;16.15;9.10;;;19.30;78.10;;;19.20;67.76;100843.81;5085936;28;20097;-85
2021/06/15 01:44:05;;;;;;;14.55;9.20;;;19.20;78.20;;;19.16;67.99;100844.53;5083990;28;20662;-85
2021/06/15 01:46:54;;;;;;;17.17;9.30;;;19.20;78.20;;;19.12;67.82;100844.97;5083999;28;20053;-84
2021/06/15 01:49:41;;;;;;;14.82;9.40;;;19.20;78.40;;;19.12;67.90;100839.47;5083781;28;20611;-85
2021/06/15 01:52:23;;;;;;;15.43;9.75;;;19.20;78.70;;;19.11;68.24;100839.69;5081114;28;20043;-87
2021/06/15 01:54:56;;;;;;;;;;;19.10;78.90;;;19.06;68.50;100837.63;5083686;28;20052;-87
2021/06/15 01:57:44;;;;;;;15.98;8.65;;;19.10;79.00;;;19.06;68.52;100839.56;5083924;28;20296;-87
2021/06/15 02:03:30;;;;;;;14.10;9.68;;;19.10;79.00;;;19.01;68.68;100837.50;5071833;28;20493;-87
2021/06/15 02:06:08;;;;;;;13.00;9.20;;;19.00;79.20;;;18.99;68.57;100838.81;5100646;28;20048;-86
2021/06/15 02:08:51;;;;;;;11.95;8.45;;;19.00;79.20;;;18.97;68.83;100843.72;5085007;28;20055;-87
2021/06/15 02:15:10;;;;;;;13.85;9.95;;;19.00;79.50;;;18.92;69.08;100850.78;5084950;28;20052;-87
2021/06/15 02:18:11;;;;;;;15.07;9.18;;;19.00;79.70;;;18.89;69.18;100856.75;5083713;28;20054;-87
2021/06/15 02:21:18;;;;;;;16.90;9.93;;;18.90;79.70;;;18.87;69.03;100841.50;5082550;28;20080;-87
2021/06/15 02:23:58;;;;;;;16.38;10.52;;;18.90;79.90;;;18.83;69.31;100840.25;5083261;28;20087;-87
2021/06/15 02:26:41;;;;;;;22.90;14.18;;;18.90;79.90;;;18.82;69.69;100842.19;5082779;28;20090;-87
2021/06/15 02:29:20;;;;;;;22.48;14.20;;;18.90;80.10;;;18.84;70.09;100841.97;5083344;28;20524;-87
2021/06/15 02:32:04;;;;;;;19.73;12.77;;;19.00;80.40;;;18.83;70.35;100838.38;5084211;28;20093;-87
2021/06/15 02:34:52;;;;;;;23.20;13.63;;;19.00;80.20;;;18.80;70.33;100837.94;5070919;28;20537;-87
2021/06/15 02:37:35;;;;;;;23.15;15.10;;;19.00;80.40;;;18.82;70.65;100838.59;5070946;28;20044;-87
2021/06/15 02:40:23;;;;;;;27.20;17.42;;;19.10;80.60;;;18.84;71.16;100841.97;5069035;28;20048;-87
2021/06/15 02:43:00;;;;;;;26.00;16.83;;;19.10;80.90;;;18.86;71.02;100839.81;5070623;28;20101;-87
2021/06/15 02:45:41;;;;;;;25.83;16.98;;;19.20;80.10;;;18.87;70.81;100836.81;5069732;28;20080;-87
2021/06/15 02:51:19;;;;;;;25.55;17.40;;;19.30;80.00;;;18.92;70.89;100838.88;5163111;27;20263;-85
2021/06/15 02:54:12;;;;;;;25.55;17.60;;;19.40;80.30;;;18.90;71.39;100836.34;5142759;27;20507;-87
2021/06/15 02:56:59;;;;;;;31.13;18.77;;;19.40;80.20;;;18.89;71.73;100842.13;5124144;28;20047;-87
2021/06/15 02:59:36;;;;;;;28.23;17.95;;;19.40;80.00;;;18.88;71.86;100832.97;5105629;28;20040;-87
2021/06/15 03:05:01;;;;;;;27.02;17.38;;;19.40;80.00;;;18.89;71.99;100842.94;5106143;28;20069;-87
2021/06/15 03:07:51;;;;;;;29.35;17.80;;;19.40;80.30;;;18.92;71.73;100838.88;5104476;28;20496;-87
2021/06/15 03:10:32;;;;;;;28.77;18.35;;;19.50;80.20;;;18.94;71.85;100854.13;5104115;28;20083;-87
2021/06/15 03:16:15;;;;;;;30.95;17.20;;;19.50;80.60;;;18.93;72.52;100851.59;5104197;28;20097;-87
2021/06/15 03:19:01;;;;;;;28.90;18.15;;;19.50;80.60;;;18.94;72.12;100847.75;5104388;28;20054;-87
2021/06/15 03:21:54;;;;;;;25.98;18.38;;;19.50;80.40;;;18.95;72.19;100854.97;5103833;28;20546;-87
2021/06/15 03:24:48;;;;;;;28.85;18.17;;;19.50;80.60;;;18.94;72.44;100854.13;5104237;28;20044;-87
2021/06/15 03:27:30;;;;;;;31.48;19.00;;;19.50;80.90;;;18.95;72.21;100850.28;5104529;28;20526;-88
2021/06/15 03:30:18;;;;;;;27.38;19.77;;;19.50;80.60;;;18.95;72.64;100849.47;5104806;28;20062;-87
2021/06/15 03:33:03;;;;;;;33.53;19.70;;;19.50;80.80;;;18.97;72.48;100858.34;5109009;28;20047;-87
2021/06/15 03:35:47;;;;;;;32.00;19.27;;;19.50;80.60;;;18.99;72.16;100860.88;5120934;28;20116;-87
2021/06/15 03:38:43;;;;;;;31.73;18.58;;;19.50;80.60;;;18.97;72.72;100866.63;5111069;28;20559;-87
2021/06/15 03:41:26;;;;;;;27.83;19.73;;;19.60;80.60;;;19.00;72.37;100868.91;5103746;28;20408;-87
2021/06/15 03:44:09;;;;;;;27.65;18.80;;;19.50;80.70;;;18.97;72.63;100863.84;5106418;28;20039;-87
2021/06/15 03:46:47;;;;;;;33.72;19.98;;;19.60;80.80;;;18.97;73.10;100866.63;5105520;28;20065;-87
2021/06/15 03:49:25;;;;;;;34.78;19.45;;;19.60;80.60;;;18.99;72.75;100861.69;5105396;28;20093;-87
2021/06/15 03:52:10;;;;;;;34.40;18.85;;;19.60;80.70;;;19.01;72.85;100864.25;5117717;28;20089;-87
2021/06/15 03:54:49;;;;;;;26.45;18.10;;;19.60;80.70;;;18.98;73.19;100871.03;5102974;28;20055;-87
2021/06/15 03:57:40;;;;;;;31.20;18.05;;;19.60;80.80;;;18.99;73.10;100878.25;5104430;28;20093;-86
2021/06/15 04:00:24;;;;;;;30.05;18.98;;;19.60;80.70;;;19.01;73.01;100883.53;5104272;28;20044;-87
2021/06/15 04:03:04;;;;;;;30.10;18.30;;;19.70;80.80;;;19.01;73.18;100886.31;5091124;28;20509;-86
2021/06/15 04:05:46;;;;;;;27.67;17.50;;;19.70;80.40;;;19.00;72.79;100891.00;5091497;28;20051;-87
2021/06/15 04:11:12;;;;;;;24.25;15.95;;;19.70;80.10;;;19.03;72.87;100895.19;5090681;28;20069;-85
2021/06/15 04:16:59;;;;;;;24.50;15.65;;;19.80;79.80;;;19.02;73.54;100919.19;5142710;27;20447;-88
2021/06/15 04:19:40;;;;;;;24.00;15.18;;;19.90;79.80;;;19.01;73.38;100911.97;5105481;28;20500;-85
2021/06/15 04:22:21;;;;;;;20.45;13.25;;;20.00;79.40;;;19.04;72.92;100924.44;5106024;28;20048;-85
2021/06/15 04:25:05;;;;;;;22.02;12.88;;;20.00;78.80;;;19.04;72.35;100928.06;5104794;28;20102;-87
2021/06/15 04:27:44;;;;;;;24.13;12.13;;;20.00;78.30;;;19.07;72.22;100924.00;5106438;28;20046;-88
2021/06/15 04:30:29;;;;;;;22.58;12.32;;;20.00;78.00;;;19.09;72.04;100910.81;5105755;28;20051;-88
2021/06/15 04:33:16;;;;;;;20.67;12.07;;;20.10;77.90;;;19.12;71.83;100916.72;5104877;28;20048;-89
2021/06/15 04:35:58;;;;;;;19.67;12.05;;;20.20;77.30;;;19.16;71.80;100930.06;5106084;28;20556;-87
2021/06/15 04:38:42;;;;;;;20.05;11.43;;;20.30;77.00;;;19.18;71.47;100919.63;5106065;28;20052;-87
2021/06/15 04:41:23;;;;;;;18.95;11.52;;;20.40;76.40;;;19.23;71.71;100922.50;5105441;28;20044;-88
2021/06/15 04:44:11;;;;;;;21.08;11.77;;;20.50;76.10;;;19.25;71.28;100920.38;5105962;28;20099;-89
2021/06/15 04:46:54;;;;;;;15.85;10.57;;;20.50;75.90;;;19.27;71.55;100918.25;5106067;28;20040;-88
2021/06/15 04:49:41;;;;;;;18.55;11.05;;;20.70;75.80;;;19.30;71.69;100923.28;5105213;28;20719;-89
2021/06/15 04:55:14;;;;;;;18.95;11.10;;;20.90;74.80;;;19.39;71.60;100926.56;5104059;28;20051;-86
2021/06/15 04:57:52;;;;;;;17.67;10.87;;;21.00;74.50;;;19.42;71.64;100937.13;5104372;28;20048;-87
2021/06/15 05:00:30;;;;;;;21.80;12.20;;;21.10;74.30;;;19.48;71.57;100948.09;5104415;28;20292;-88
2021/06/15 05:03:10;;;;;;;18.35;11.25;;;21.20;73.80;;;19.52;71.77;100957.59;5105941;28;20040;-85
2021/06/15 05:06:02;;;;;;;19.73;11.38;;;21.30;74.00;;;19.58;70.85;100958.56;5105359;28;20519;-83
2021/06/15 05:08:43;;;;;;;22.73;11.88;;;21.20;73.30;;;19.61;70.63;100951.72;5105684;28;20397;-86
2021/06/15 05:11:19;;;;;;;23.53;12.20;;;21.30;73.30;;;19.63;70.76;100961.47;5103365;28;20044;-85
2021/06/15 05:14:00;;;;;;;20.45;11.68;;;21.30;73.50;;;19.65;70.92;100966.78;5105597;28;20066;-88
2021/06/15 05:16:42;;;;;;;20.50;12.30;;;21.20;73.50;;;19.65;70.58;100959.31;5105112;28;20040;-82
2021/06/15 05:19:21;;;;;;;17.33;11.75;;;21.20;73.50;;;19.65;70.70;100958.50;5105455;28;20093;-83
2021/06/15 05:25:08;;;;;;;19.95;12.68;;;21.20;73.40;;;19.68;70.08;100958.84;5103301;28;20545;-83
2021/06/15 05:27:43;;;;;;;18.63;12.68;;;21.20;73.40;;;19.71;69.89;100957.56;5094411;28;20048;-83
2021/06/15 05:30:20;;;;;;;24.30;13.15;;;21.20;73.40;;;19.73;69.71;100952.66;5090299;28;20040;-88
2021/06/15 05:32:56;;;;;;;19.95;12.43;;;21.20;73.20;;;19.73;69.78;100945.22;5090021;28;20586;-87
2021/06/15 05:35:35;;;;;;;21.90;12.07;;;21.20;73.40;;;19.78;70.21;100946.41;5091119;28;20102;-85
2021/06/15 05:38:40;;;;;;;20.67;12.25;;;21.20;73.80;;;19.82;69.73;100942.97;5091345;28;20044;-83
2021/06/15 05:41:19;;;;;;;19.77;12.00;;;21.30;72.90;;;19.83;69.50;100944.63;5090321;28;20044;-85
2021/06/15 05:49:21;;;;;;;18.65;11.13;;;21.40;72.40;;;19.92;69.47;100943.22;5031785;23;20057;-82
2021/06/15 05:52:07;;;;;;;24.67;12.50;;;21.50;72.70;;;20.00;69.53;100947.56;5049632;28;20048;-82
2021/06/15 05:55:10;;;;;;;24.15;11.70;;;21.80;71.80;;;20.14;68.90;100939.91;5059918;28;20494;-90
2021/06/15 05:57:46;;;;;;;22.20;12.32;;;23.40;66.80;;;20.36;68.41;100936.56;5052219;28;20052;-88
2021/06/15 06:00:29;;;;;;;19.83;12.27;;;25.90;57.90;;;20.57;67.78;100935.13;5051516;28;20064;-89
2021/06/15 06:03:05;;;;;;;18.20;11.38;;;27.80;52.10;;;;;;5047167;28;20203;-89
2021/06/15 06:08:32;;;;;;;19.13;11.90;;;30.50;44.60;;;21.41;65.14;100954.97;5030602;28;20045;-89
2021/06/15 06:13:53;;;;;;;17.75;11.52;;;32.30;39.50;;;21.89;64.42;100960.34;5030015;28;20046;-88
2021/06/15 06:19:23;;;;;;;17.30;10.05;;;33.40;36.80;;;22.38;63.25;100974.53;4995175;28;20045;-81
2021/06/15 06:22:02;;;;;;;19.83;10.60;;;33.50;35.20;;;22.56;61.32;100973.44;5013461;28;20049;-81
2021/06/15 06:24:41;;;;;;;19.67;11.02;;;33.80;34.80;;;22.74;62.29;100970.38;5021943;28;20112;-80
2021/06/15 06:33:06;;;;;;;;;;;34.70;32.30;;;23.00;60.28;100962.44;4971479;28;20422;-81
2021/06/15 06:35:45;;;;;;;25.63;10.73;;;35.00;32.20;;;22.97;62.01;100961.00;4971297;28;19973;-80
2021/06/15 06:38:23;;;;;;;16.05;10.30;;;34.30;33.00;;;22.92;61.16;100966.47;4970042;28;20039;-80
2021/06/15 06:40:58;;;;;;;17.85;10.85;;;32.00;37.30;;;22.83;60.96;100965.25;5002893;28;20119;-79
2021/06/15 06:43:54;;;;;;;21.98;11.68;;;30.20;41.40;;;22.75;62.57;100974.00;5010217;28;20708;-78
2021/06/15 06:46:33;;;;;;;18.00;10.93;;;28.90;46.10;;;22.68;61.31;100965.03;5000085;28;20039;-78
2021/06/15 06:49:09;;;;;;;22.08;9.57;;;28.00;48.30;;;22.65;63.38;100972.75;4985865;28;20050;-78
2021/06/15 06:51:48;;;;;;;19.95;11.02;;;27.30;51.20;;;22.59;61.46;100975.72;4990567;28;20046;-78
2021/06/15 06:57:14;;;;;;;16.55;10.23;;;26.40;52.70;;;22.51;62.50;100984.47;4970507;28;20057;-78
2021/06/15 07:02:54;;;;;;;21.92;10.70;;;26.00;55.60;;;22.47;61.66;100984.13;5139332;27;20132;-79
2021/06/15 07:05:36;;;;;;;14.70;8.82;;;25.80;54.80;;;22.46;62.95;100982.44;5069788;28;20085;-78
2021/06/15 07:08:12;;;;;;;22.23;10.60;;;25.70;56.50;;;22.43;64.00;100988.50;5085772;28;20044;-78
2021/06/15 07:10:50;;;;;;;20.25;10.35;;;25.50;57.90;;;22.41;63.25;100990.69;5086082;28;20093;-79
2021/06/15 07:16:19;;;;;;;19.85;10.63;;;25.30;58.20;;;22.38;63.22;100980.91;5106094;28;20051;-78
2021/06/15 07:18:56;;;;;;;24.13;12.13;;;25.20;58.20;;;22.32;62.09;100984.72;5106055;28;20072;-79
2021/06/15 07:21:34;;;;;;;19.90;10.63;;;25.00;57.80;;;22.28;62.01;100991.03;5106310;28;20052;-78
2021/06/15 07:24:21;;;;;;;21.05;11.10;;;24.80;58.90;;;22.30;62.59;100988.84;5106110;28;20470;-79
2021/06/15 07:29:52;;;;;;;18.17;10.52;;;24.70;60.30;;;22.30;62.82;100991.59;5105952;28;20048;-79
2021/06/15 07:35:22;;;;;;;22.17;11.07;;;24.60;59.20;;;22.27;64.27;100989.31;5105605;28;20044;-79
2021/06/15 07:38:00;;;;;;;19.02;11.13;;;24.60;61.70;;;22.24;63.72;100987.88;5105639;28;20047;-78
2021/06/15 07:40:42;;;;;;;15.85;9.68;;;24.60;60.80;;;22.27;65.56;100989.31;5105942;28;20055;-79
2021/06/15 07:43:20;;;;;;;14.00;9.80;;;24.60;62.60;;;22.23;64.59;100989.78;5105854;28;20036;-79
2021/06/15 07:45:59;;;;;;;17.50;10.63;;;24.60;62.40;;;22.17;62.93;100989.97;5105745;28;20051;-79
2021/06/15 07:48:35;;;;;;;18.45;10.00;;;24.50;60.60;;;22.21;64.17;100986.41;5105342;28;20047;-79
2021/06/15 07:51:12;;;;;;;18.77;9.98;;;24.50;62.40;;;22.19;62.87;100991.38;5105780;28;20445;-79
2021/06/15 07:53:50;;;;;;;15.27;8.23;;;24.40;60.70;;;22.24;63.20;100994.25;5105555;28;20048;-79
2021/06/15 07:56:28;;;;;;;14.77;8.43;;;24.50;61.00;;;22.28;63.55;100991.03;5105507;28;20521;-78
2021/06/15 07:59:07;;;;;;;17.85;9.68;;;24.60;61.20;;;22.28;62.88;100991.84;5104859;28;20532;-79
2021/06/15 08:01:43;;;;;;;16.90;8.50;;;24.80;60.00;;;22.36;65.41;100994.19;5105290;28;20035;-79
2021/06/15 08:04:18;;;;;;;17.52;8.50;;;25.00;61.20;;;22.44;64.38;100990.16;5104499;28;20104;-78
2021/06/15 08:06:56;;;;;;;26.23;8.48;;;25.30;60.20;;;22.46;63.71;100993.53;5104332;28;20050;-79
2021/06/15 08:12:24;;;;;;;15.10;7.63;;;25.40;57.10;;;22.47;62.06;100998.00;5100810;28;20123;-79
2021/06/15 08:15:03;;;;;;;15.93;8.38;;;25.40;57.60;;;22.50;61.73;100996.63;5090545;28;20044;-79
2021/06/15 08:17:41;;;;;;;14.70;7.18;;;25.50;57.20;;;22.56;63.41;100999.25;5091059;28;20072;-79
2021/06/15 08:20:21;;;;;;;14.15;8.07;;;25.60;58.10;;;22.59;62.90;100990.41;5091609;28;20048;-80
2021/06/15 08:23:01;;;;;;;14.07;6.85;;;25.70;56.40;;;22.57;60.98;100991.75;5091446;28;20043;-79
2021/06/15 08:25:45;;;;;;;12.57;6.22;;;25.50;56.30;;;22.58;62.60;100985.97;5100748;28;20520;-81
2021/06/15 08:28:25;;;;;;;15.75;7.20;;;25.50;58.10;;;22.61;61.37;100979.91;5095037;28;20503;-83
2021/06/15 08:31:06;;;;;;;11.48;6.85;;;25.50;57.30;;;22.58;60.80;100974.00;5088986;28;20055;-82
2021/06/15 08:36:40;;;;;;;14.13;7.25;;;25.30;56.20;;;22.55;60.34;100988.41;5103560;28;20047;-82
2021/06/15 08:39:24;;;;;;;14.27;7.60;;;25.00;57.50;;;22.53;60.84;100983.09;5086852;28;20044;-80
2021/06/15 08:42:00;;;;;;;15.23;8.20;;;25.00;58.20;;;22.52;61.11;100983.34;5090557;28;20040;-81
2021/06/15 08:44:39;;;;;;;16.77;7.88;;;25.00;58.80;;;22.49;61.01;100987.47;5091214;28;20119;-81
2021/06/15 08:47:16;;;;;;;14.63;7.05;;;24.80;58.50;;;22.50;61.61;100983.59;5090668;28;20047;-80
2021/06/15 08:49:52;;;;;;;12.30;6.10;;;24.70;59.60;;;22.53;63.74;100982.28;5090915;28;20047;-80
2021/06/15 08:52:31;;;;;;;18.75;6.57;;;24.80;61.10;;;22.59;66.77;100981.25;5090411;28;20465;-80
2021/06/15 08:55:12;;;;;;;13.35;7.35;;;24.90;63.10;;;22.60;64.38;100978.22;5090773;28;20037;-81
2021/06/15 08:57:54;;;;;;;;;;;25.00;59.60;;;22.54;60.74;100978.38;5090849;28;20081;-81
2021/06/15 09:03:22;;;;;;;13.88;6.70;;;24.70;59.90;;;22.53;60.82;100983.09;5088894;28;20055;-80
2021/06/15 09:06:00;;;;;;;14.10;5.72;;;24.80;58.70;;;22.50;60.70;100983.59;5073256;28;20052;-81
2021/06/15 09:08:51;;;;;;;13.55;5.68;;;24.80;59.30;;;22.53;60.44;100982.28;5090208;28;20052;-80
2021/06/15 09:11:49;;;;;;;9.48;4.15;;;24.80;58.40;;;22.55;60.01;100975.38;5090693;28;20043;-80
2021/06/15 09:14:51;;;;;;;14.13;5.57;;;24.80;58.30;;;22.55;61.31;100980.91;5090519;28;20040;-81
2021/06/15 09:17:42;;;;;;;13.57;5.55;;;24.80;59.20;;;22.60;61.86;100982.94;5090147;28;20044;-81
2021/06/15 09:20:27;;;;;;;7.70;4.57;;;24.90;59.40;;;22.66;64.32;100970.81;5076760;28;20164;-81
2021/06/15 09:23:06;;;;;;;12.77;5.32;;;25.00;61.30;;;22.69;62.53;100975.84;5090336;28;20046;-80
2021/06/15 09:25:43;;;;;;;15.13;4.78;;;25.00;60.50;;;22.67;62.15;100978.03;5089190;28;20097;-81
2021/06/15 09:28:29;;;;;;;9.50;4.32;;;25.00;59.70;;;22.68;60.88;100978.91;5089979;28;20039;-81
2021/06/15 09:31:13;;;;;;;8.25;3.92;;;25.00;59.10;;;22.71;62.04;100968.09;5088012;28;20432;-80
2021/06/15 09:33:53;;;;;;;9.38;3.47;;;25.00;59.50;;;22.69;58.55;100975.03;5090166;28;20503;-80
2021/06/15 09:39:52;;;;;;;10.48;4.28;;;25.00;54.60;;;22.66;56.35;100970.81;5142881;27;20875;-79
2021/06/15 09:42:30;;;;;;;10.88;3.92;;;25.00;55.20;;;22.65;57.77;100969.97;5106571;28;20055;-80
2021/06/15 09:45:20;;;;;;;12.23;5.00;;;25.00;56.20;;;22.65;57.52;100967.19;5106756;28;20043;-79
2021/06/15 09:48:00;;;;;;;10.67;4.40;;;25.00;55.90;;;22.69;59.81;100969.47;5106173;28;20044;-79
2021/06/15 09:50:53;;;;;;;7.95;3.70;;;25.00;57.90;;;22.73;59.65;100976.19;5106609;28;20055;-79
2021/06/15 09:53:38;;;;;;;9.73;3.85;;;25.00;57.90;;;22.77;60.59;100977.34;5106330;28;20048;-81
2021/06/15 09:56:20;;;;;;;12.73;3.75;;;25.00;58.10;;;22.73;57.87;100981.72;5106328;28;20044;-81
2021/06/15 09:59:00;;;;;;;9.93;3.10;;;25.00;56.00;;;22.64;54.15;100976.63;5100927;28;20048;-82
2021/06/15 10:01:42;;;;;;;3.20;1.38;;;24.80;53.70;;;22.60;50.52;100971.84;5091195;28;20519;-81
2021/06/15 10:04:25;;;;;;;6.18;1.98;;;24.70;49.60;;;22.59;52.52;100984.03;5099218;28;20048;-80
2021/06/15 10:07:00;;;;;;;6.07;2.90;;;24.60;52.20;;;22.62;54.69;100980.75;5085635;28;20051;-81
2021/06/15 10:09:41;;;;;;;8.05;3.75;;;24.60;54.20;;;22.61;55.78;100979.91;5093940;28;20757;-81
2021/06/15 10:12:36;;;;;;;7.03;3.72;;;24.60;54.80;;;22.57;54.35;100983.44;5106094;28;20044;-81
2021/06/15 10:15:16;;;;;;;11.73;4.18;;;24.60;53.80;;;22.57;55.44;100984.28;5105869;28;20048;-80
2021/06/15 10:17:55;;;;;;;10.88;3.03;;;24.50;55.10;;;22.56;53.92;100982.63;5100737;28;20063;-82
2021/06/15 10:20:37;;;;;;;6.68;2.30;;;24.50;53.60;;;22.54;50.86;100975.63;5104392;28;20041;-79
2021/06/15 10:23:16;;;;;;;10.75;2.95;;;24.50;52.00;;;22.59;53.25;100975.72;5086940;28;20036;-79
2021/06/15 10:26:02;;;;;;;8.02;2.88;;;24.50;53.00;;;22.63;54.62;100982.44;5105737;28;20050;-79
2021/06/15 10:28:45;;;;;;;4.72;2.35;;;24.60;54.10;;;22.58;52.11;100972.09;5105395;28;20554;-79
2021/06/15 10:31:18;;;;;;;9.35;2.90;;;24.60;52.40;;;22.59;53.24;100984.84;5105746;28;20055;-79
2021/06/15 10:33:58;;;;;;;5.97;3.00;;;24.50;53.60;;;22.59;54.24;100978.47;5105403;28;20552;-79
2021/06/15 10:36:51;;;;;;;6.63;2.67;;;24.60;53.90;;;22.61;54.84;100979.06;5102137;28;20044;-80
2021/06/15 10:39:47;;;;;;;8.77;3.30;;;24.60;54.80;;;22.61;55.62;100977.13;5094653;28;20044;-79
2021/06/15 10:42:26;;;;;;;5.55;2.10;;;24.60;54.60;;;22.59;53.35;100975.72;5105262;28;20548;-79
2021/06/15 10:45:37;;;;;;;5.38;2.60;;;24.60;53.80;;;22.61;55.04;100971.56;5105355;28;20124;-79
2021/06/15 10:48:48;;;;;;;9.65;2.58;;;24.60;53.50;;;22.62;54.38;100970.50;5101160;28;20036;-79
2021/06/15 10:51:42;;;;;;;10.65;2.80;;;24.70;53.40;;;22.64;55.29;100975.78;5085975;28;20557;-79
2021/06/15 10:54:42;;;;;;;6.28;2.60;;;24.70;54.90;;;22.65;53.88;100967.19;5089975;28;20430;-79
2021/06/15 10:57:32;;;;;;;7.27;2.70;;;24.70;54.10;;;22.65;51.77;100971.91;5091324;28;20044;-79
2021/06/15 11:00:19;;;;;;;7.50;3.28;;;24.80;50.90;;;22.61;51.77;100979.06;5091513;28;20094;-80
2021/06/15 11:06:23;;;;;;;6.55;2.45;;;24.60;51.40;;;22.61;51.70;100974.34;5081131;28;20056;-80
2021/06/15 11:09:35;;;;;;;6.32;2.35;;;24.70;51.70;;;22.64;52.49;100968.31;5089438;28;20117;-79
2021/06/15 11:12:28;;;;;;;11.60;2.90;;;24.70;52.80;;;22.67;52.16;100972.50;5091171;28;20036;-79
2021/06/15 11:15:35;;;;;;;6.15;2.90;;;24.80;52.30;;;22.70;52.65;100965.63;5091207;28;20051;-79
2021/06/15 11:18:20;;;;;;;10.05;3.08;;;24.80;52.10;;;22.73;54.56;100954.84;5088384;28;20097;-79
2021/06/15 11:21:04;;;;;;;8.07;3.33;;;24.90;54.00;;;22.75;54.99;100957.34;5082165;28;20055;-78
2021/06/15 11:23:42;;;;;;;9.70;3.42;;;24.90;54.10;;;22.72;52.84;100955.09;5090940;28;20058;-79
2021/06/15 11:26:35;;;;;;;9.10;2.78;;;24.80;51.70;;;22.74;53.20;100961.22;5085953;28;20051;-79
2021/06/15 11:32:09;;;;;;;7.57;2.88;;;24.80;51.00;;;22.70;50.52;100966.44;5090209;28;20047;-79
2021/06/15 11:35:01;;;;;;;6.13;2.30;;;24.80;49.70;;;22.73;52.84;100957.63;5079260;28;20495;-79
2021/06/15 11:37:49;;;;;;;7.60;2.70;;;24.90;52.30;;;22.74;52.72;100962.06;5077191;28;20044;-79
2021/06/15 11:43:29;;;;;;;8.45;3.50;;;24.90;52.70;;;22.79;55.80;100950.19;5077442;28;20476;-79
2021/06/15 11:46:13;;;;;;;;;;;25.00;53.80;;;22.84;54.86;100955.81;5090850;28;20566;-79
2021/06/15 11:49:12;;;;;;;9.27;4.28;;;25.10;53.30;;;22.80;52.59;100954.66;5087159;28;20379;-79
2021/06/15 11:51:55;;;;;;;9.52;3.20;;;25.10;51.70;;;22.76;51.92;100953.50;5070201;28;20079;-78
2021/06/15 11:54:34;;;;;;;9.13;3.05;;;25.00;51.60;;;22.79;53.72;100947.41;5088156;28;20073;-80
2021/06/15 12:00:03;;;;;;;6.75;2.50;;;25.10;53.00;;;22.80;51.73;100946.31;5088038;28;20048;-81
2021/06/15 12:02:44;;;;;;;8.35;2.33;;;25.10;51.30;;;22.79;51.23;100947.41;5088235;28;20059;-81
2021/06/15 12:05:24;;;;;;;5.40;2.20;;;25.10;50.40;;;22.77;50.81;100944.91;5090084;28;20104;-82
2021/06/15 12:08:04;;;;;;;8.70;2.37;;;25.00;50.70;;;22.79;51.63;100944.63;5088856;28;20040;-82
2021/06/15 12:10:48;;;;;;;8.80;2.78;;;25.00;51.10;;;22.80;52.17;100943.56;5076850;28;20089;-81
2021/06/15 12:16:15;;;;;;;5.47;1.85;;;25.00;50.80;;;22.84;53.07;100939.16;5069301;23;20084;-87
2021/06/15 12:18:55;;;;;;;4.10;1.63;;;25.00;52.40;;;22.88;53.22;100943.09;5009337;28;20037;-86
2021/06/15 12:21:37;;;;;;;5.78;2.05;;;25.00;53.00;;;22.86;50.06;100938.91;5010134;28;20049;-86
2021/06/15 12:27:26;;;;;;;4.55;1.40;;;24.90;50.30;;;22.83;49.87;100945.81;4990755;28;20066;-85
2021/06/15 12:30:18;;;;;;;11.02;1.83;;;24.80;50.20;;;22.83;49.50;100943.06;4990497;28;20410;-87
2021/06/15 12:33:05;;;;;;;4.65;1.30;;;24.80;49.80;;;22.85;49.09;100951.97;4988827;28;20066;-87
2021/06/15 12:38:42;;;;;;;3.17;1.20;;;24.80;49.80;;;22.80;47.90;100949.09;5009226;28;20062;-86
2021/06/15 12:44:32;;;;;;;6.18;1.42;;;24.70;47.90;;;22.77;48.12;100949.59;5009093;28;20053;-87
2021/06/15 12:47:13;;;;;;;5.00;1.30;;;24.70;48.10;;;22.73;46.99;100948.44;5007944;28;20425;-87
2021/06/15 12:50:00;;;;;;;8.05;1.63;;;24.60;47.30;;;22.75;47.10;100935.16;5009882;28;20117;-86
2021/06/15 12:52:42;;;;;;;4.35;1.48;;;24.60;47.70;;;22.76;47.49;100931.28;5008953;28;20045;-87
2021/06/15 12:58:47;;;;;;;4.32;1.40;;;24.70;48.50;;;22.81;48.41;100928.59;5142538;27;20503;-88
2021/06/15 13:01:36;;;;;;;7.88;1.45;;;24.80;49.30;;;22.81;48.40;100936.91;5106558;28;20048;-85
2021/06/15 13:04:29;;;;;;;7.32;1.52;;;24.80;48.50;;;22.82;48.74;100933.03;5085842;28;20083;-84
2021/06/15 13:07:14;;;;;;;4.68;1.70;;;24.80;48.70;;;22.80;47.83;100932.44;5098641;28;20047;-84
2021/06/15 13:15:49;;;;;;;3.88;1.48;;;24.80;48.10;;;22.82;47.28;100924.72;5101419;28;20073;-84
2021/06/15 13:18:37;;;;;;;3.63;1.40;;;24.90;47.90;;;22.84;47.75;100928.06;5099518;28;20044;-85